sensor_id;sensor_type;location;lat;lon;timestamp;P1;durP1;ratioP1;P2;durP2;ratioP2
53835;SDS011;39737;43.334;21.936;2024-02-21T00:01:54;8.50;;;5.88;;
53835;SDS011;39737;43.334;21.936;2024-02-21T00:04:43;6.40;;;3.28;;
53835;SDS011;39737;43.334;21.936;2024-02-21T00:07:29;17.77;;;3.88;;
53835;SDS011;39737;43.334;21.936;2024-02-21T00:10:18;9.63;;;6.60;;
53835;SDS011;39737;43.334;21.936;2024-02-21T00:13:05;9.52;;;4.72;;
53835;SDS011;39737;43.334;21.936;2024-02-21T00:15:51;24.17;;;10.60;;
53835;SDS011;39737;43.334;21.936;2024-02-21T00:18:38;14.27;;;8.65;;
53835;SDS011;39737;43.334;21.936;2024-02-21T00:21:24;22.08;;;10.05;;
53835;SDS011;39737;43.334;21.936;2024-02-21T00:24:11;9.80;;;7.07;;
53835;SDS011;39737;43.334;21.936;2024-02-21T00:26:57;10.55;;;7.78;;
53835;SDS011;39737;43.334;21.936;2024-02-21T00:29:44;11.73;;;7.68;;
53835;SDS011;39737;43.334;21.936;2024-02-21T00:32:30;13.57;;;8.13;;
53835;SDS011;39737;43.334;21.936;2024-02-21T00:35:18;14.57;;;7.85;;
53835;SDS011;39737;43.334;21.936;2024-02-21T00:38:05;23.50;;;11.15;;
53835;SDS011;39737;43.334;21.936;2024-02-21T00:40:51;21.98;;;9.18;;
53835;SDS011;39737;43.334;21.936;2024-02-21T00:43:38;9.13;;;8.32;;
53835;SDS011;39737;43.334;21.936;2024-02-21T00:46:25;11.07;;;7.90;;
53835;SDS011;39737;43.334;21.936;2024-02-21T00:49:11;8.80;;;5.25;;
53835;SDS011;39737;43.334;21.936;2024-02-21T00:51:58;15.68;;;8.95;;
53835;SDS011;39737;43.334;21.936;2024-02-21T00:54:44;8.85;;;6.38;;
53835;SDS011;39737;43.334;21.936;2024-02-21T00:57:39;11.90;;;7.68;;
53835;SDS011;39737;43.334;21.936;2024-02-21T01:00:25;17.92;;;7.55;;
53835;SDS011;39737;43.334;21.936;2024-02-21T01:03:11;12.57;;;6.18;;
53835;SDS011;39737;43.334;21.936;2024-02-21T01:05:58;5.13;;;4.47;;
53835;SDS011;39737;43.334;21.936;2024-02-21T01:08:44;6.47;;;4.68;;
53835;SDS011;39737;43.334;21.936;2024-02-21T01:11:30;20.38;;;9.45;;
53835;SDS011;39737;43.334;21.936;2024-02-21T01:14:17;14.63;;;6.25;;
53835;SDS011;39737;43.334;21.936;2024-02-21T01:17:03;7.55;;;6.82;;
53835;SDS011;39737;43.334;21.936;2024-02-21T01:19:51;15.80;;;8.18;;
53835;SDS011;39737;43.334;21.936;2024-02-21T01:22:38;10.68;;;7.93;;
53835;SDS011;39737;43.334;21.936;2024-02-21T01:25:24;9.25;;;5.90;;
53835;SDS011;39737;43.334;21.936;2024-02-21T01:28:10;7.93;;;5.38;;
53835;SDS011;39737;43.334;21.936;2024-02-21T01:30:57;6.65;;;5.97;;
53835;SDS011;39737;43.334;21.936;2024-02-21T01:33:43;21.17;;;6.47;;
53835;SDS011;39737;43.334;21.936;2024-02-21T01:36:29;15.45;;;9.73;;
53835;SDS011;39737;43.334;21.936;2024-02-21T01:39:16;18.35;;;5.72;;
53835;SDS011;39737;43.334;21.936;2024-02-21T01:42:02;15.88;;;8.93;;
53835;SDS011;39737;43.334;21.936;2024-02-21T01:44:48;3.40;;;3.10;;
53835;SDS011;39737;43.334;21.936;2024-02-21T01:47:36;10.38;;;4.80;;
53835;SDS011;39737;43.334;21.936;2024-02-21T01:50:23;7.47;;;5.55;;
53835;SDS011;39737;43.334;21.936;2024-02-21T01:53:09;10.70;;;5.55;;
53835;SDS011;39737;43.334;21.936;2024-02-21T01:55:55;6.38;;;4.57;;
53835;SDS011;39737;43.334;21.936;2024-02-21T01:58:42;8.73;;;7.22;;
53835;SDS011;39737;43.334;21.936;2024-02-21T02:01:29;8.18;;;6.47;;
53835;SDS011;39737;43.334;21.936;2024-02-21T02:04:16;7.70;;;5.15;;
53835;SDS011;39737;43.334;21.936;2024-02-21T02:07:02;15.68;;;4.80;;
53835;SDS011;39737;43.334;21.936;2024-02-21T02:09:55;11.18;;;8.07;;
53835;SDS011;39737;43.334;21.936;2024-02-21T02:12:41;15.77;;;5.85;;
53835;SDS011;39737;43.334;21.936;2024-02-21T02:15:37;12.75;;;7.80;;
53835;SDS011;39737;43.334;21.936;2024-02-21T02:18:24;32.13;;;7.68;;
53835;SDS011;39737;43.334;21.936;2024-02-21T02:21:27;13.57;;;8.63;;
53835;SDS011;39737;43.334;21.936;2024-02-21T02:24:21;13.30;;;8.65;;
53835;SDS011;39737;43.334;21.936;2024-02-21T02:27:11;13.13;;;6.07;;
53835;SDS011;39737;43.334;21.936;2024-02-21T02:29:58;15.68;;;9.05;;
53835;SDS011;39737;43.334;21.936;2024-02-21T02:32:46;13.70;;;9.05;;
53835;SDS011;39737;43.334;21.936;2024-02-21T02:35:51;12.10;;;8.30;;
53835;SDS011;39737;43.334;21.936;2024-02-21T02:38:38;16.10;;;9.95;;
53835;SDS011;39737;43.334;21.936;2024-02-21T02:41:24;15.40;;;9.70;;
53835;SDS011;39737;43.334;21.936;2024-02-21T02:44:11;17.50;;;10.40;;
53835;SDS011;39737;43.334;21.936;2024-02-21T02:46:59;13.95;;;9.30;;
53835;SDS011;39737;43.334;21.936;2024-02-21T02:49:46;12.35;;;7.28;;
53835;SDS011;39737;43.334;21.936;2024-02-21T02:52:37;7.03;;;4.97;;
53835;SDS011;39737;43.334;21.936;2024-02-21T02:55:24;8.75;;;6.03;;
53835;SDS011;39737;43.334;21.936;2024-02-21T02:58:12;8.40;;;7.15;;
53835;SDS011;39737;43.334;21.936;2024-02-21T03:00:59;10.85;;;6.05;;
53835;SDS011;39737;43.334;21.936;2024-02-21T03:03:46;28.05;;;11.55;;
53835;SDS011;39737;43.334;21.936;2024-02-21T03:06:33;24.70;;;13.35;;
53835;SDS011;39737;43.334;21.936;2024-02-21T03:09:19;23.08;;;13.32;;
53835;SDS011;39737;43.334;21.936;2024-02-21T03:12:06;42.75;;;17.25;;
53835;SDS011;39737;43.334;21.936;2024-02-21T03:14:53;38.85;;;15.52;;
53835;SDS011;39737;43.334;21.936;2024-02-21T03:17:39;31.02;;;18.27;;
53835;SDS011;39737;43.334;21.936;2024-02-21T03:20:26;40.25;;;16.52;;
53835;SDS011;39737;43.334;21.936;2024-02-21T03:23:13;16.58;;;12.02;;
53835;SDS011;39737;43.334;21.936;2024-02-21T03:25:59;21.45;;;12.77;;
53835;SDS011;39737;43.334;21.936;2024-02-21T03:28:45;35.95;;;11.80;;
53835;SDS011;39737;43.334;21.936;2024-02-21T03:31:32;12.88;;;8.52;;
53835;SDS011;39737;43.334;21.936;2024-02-21T03:34:19;18.42;;;10.00;;
53835;SDS011;39737;43.334;21.936;2024-02-21T03:37:05;20.52;;;10.07;;
53835;SDS011;39737;43.334;21.936;2024-02-21T03:39:52;28.23;;;10.60;;
53835;SDS011;39737;43.334;21.936;2024-02-21T03:42:39;31.25;;;8.52;;
53835;SDS011;39737;43.334;21.936;2024-02-21T03:45:25;12.10;;;7.05;;
53835;SDS011;39737;43.334;21.936;2024-02-21T03:48:12;16.20;;;9.32;;
53835;SDS011;39737;43.334;21.936;2024-02-21T03:50:59;15.90;;;10.85;;
53835;SDS011;39737;43.334;21.936;2024-02-21T03:53:45;15.18;;;7.53;;
53835;SDS011;39737;43.334;21.936;2024-02-21T03:56:32;13.98;;;7.03;;
53835;SDS011;39737;43.334;21.936;2024-02-21T03:59:19;11.60;;;4.28;;
53835;SDS011;39737;43.334;21.936;2024-02-21T04:02:06;6.35;;;5.45;;
53835;SDS011;39737;43.334;21.936;2024-02-21T04:04:55;6.05;;;3.97;;
53835;SDS011;39737;43.334;21.936;2024-02-21T04:07:42;10.40;;;6.65;;
53835;SDS011;39737;43.334;21.936;2024-02-21T04:10:29;24.40;;;8.13;;
53835;SDS011;39737;43.334;21.936;2024-02-21T04:13:15;7.90;;;6.25;;
53835;SDS011;39737;43.334;21.936;2024-02-21T04:16:01;16.30;;;9.32;;
53835;SDS011;39737;43.334;21.936;2024-02-21T04:18:49;17.13;;;8.00;;
53835;SDS011;39737;43.334;21.936;2024-02-21T04:21:35;11.70;;;9.02;;
53835;SDS011;39737;43.334;21.936;2024-02-21T04:24:22;14.85;;;7.93;;
53835;SDS011;39737;43.334;21.936;2024-02-21T04:27:08;13.30;;;5.47;;
53835;SDS011;39737;43.334;21.936;2024-02-21T04:29:54;5.47;;;3.97;;
53835;SDS011;39737;43.334;21.936;2024-02-21T04:32:41;12.68;;;5.05;;
53835;SDS011;39737;43.334;21.936;2024-02-21T04:35:27;6.30;;;5.70;;
53835;SDS011;39737;43.334;21.936;2024-02-21T04:38:14;8.55;;;4.60;;
53835;SDS011;39737;43.334;21.936;2024-02-21T04:41:01;18.60;;;9.00;;
53835;SDS011;39737;43.334;21.936;2024-02-21T04:43:47;9.18;;;6.32;;
53835;SDS011;39737;43.334;21.936;2024-02-21T04:46:34;11.20;;;5.28;;
53835;SDS011;39737;43.334;21.936;2024-02-21T04:49:21;14.27;;;6.43;;
53835;SDS011;39737;43.334;21.936;2024-02-21T04:52:07;6.35;;;5.68;;
53835;SDS011;39737;43.334;21.936;2024-02-21T04:54:53;7.78;;;4.50;;
53835;SDS011;39737;43.334;21.936;2024-02-21T04:57:40;22.10;;;7.45;;
53835;SDS011;39737;43.334;21.936;2024-02-21T05:00:26;9.55;;;6.07;;
53835;SDS011;39737;43.334;21.936;2024-02-21T05:03:12;7.72;;;5.20;;
53835;SDS011;39737;43.334;21.936;2024-02-21T05:05:59;5.65;;;4.90;;
53835;SDS011;39737;43.334;21.936;2024-02-21T05:08:45;25.48;;;7.97;;
53835;SDS011;39737;43.334;21.936;2024-02-21T05:11:32;11.65;;;6.35;;
53835;SDS011;39737;43.334;21.936;2024-02-21T05:14:19;9.82;;;6.65;;
53835;SDS011;39737;43.334;21.936;2024-02-21T05:17:05;11.02;;;5.35;;
53835;SDS011;39737;43.334;21.936;2024-02-21T05:19:51;5.75;;;4.43;;
53835;SDS011;39737;43.334;21.936;2024-02-21T05:22:38;6.00;;;5.50;;
53835;SDS011;39737;43.334;21.936;2024-02-21T05:25:24;13.57;;;4.50;;
53835;SDS011;39737;43.334;21.936;2024-02-21T05:28:11;6.25;;;4.25;;
53835;SDS011;39737;43.334;21.936;2024-02-21T05:30:57;6.47;;;5.43;;
53835;SDS011;39737;43.334;21.936;2024-02-21T05:33:44;10.68;;;7.07;;
53835;SDS011;39737;43.334;21.936;2024-02-21T05:36:31;7.88;;;6.05;;
53835;SDS011;39737;43.334;21.936;2024-02-21T05:39:17;8.00;;;7.30;;
53835;SDS011;39737;43.334;21.936;2024-02-21T05:42:04;11.10;;;7.97;;
53835;SDS011;39737;43.334;21.936;2024-02-21T05:44:50;19.13;;;14.02;;
53835;SDS011;39737;43.334;21.936;2024-02-21T05:47:37;24.58;;;12.77;;
53835;SDS011;39737;43.334;21.936;2024-02-21T05:50:23;28.95;;;11.68;;
53835;SDS011;39737;43.334;21.936;2024-02-21T05:53:10;10.85;;;6.38;;
53835;SDS011;39737;43.334;21.936;2024-02-21T05:55:57;26.85;;;7.90;;
53835;SDS011;39737;43.334;21.936;2024-02-21T05:58:44;13.15;;;7.18;;
53835;SDS011;39737;43.334;21.936;2024-02-21T06:01:30;17.75;;;9.07;;
53835;SDS011;39737;43.334;21.936;2024-02-21T06:04:17;12.75;;;9.57;;
53835;SDS011;39737;43.334;21.936;2024-02-21T06:07:03;24.38;;;9.40;;
53835;SDS011;39737;43.334;21.936;2024-02-21T06:09:50;14.73;;;8.75;;
53835;SDS011;39737;43.334;21.936;2024-02-21T06:12:36;17.42;;;10.23;;
53835;SDS011;39737;43.334;21.936;2024-02-21T06:15:22;22.38;;;11.07;;
53835;SDS011;39737;43.334;21.936;2024-02-21T06:18:09;21.83;;;12.77;;
53835;SDS011;39737;43.334;21.936;2024-02-21T06:20:56;38.03;;;12.95;;
53835;SDS011;39737;43.334;21.936;2024-02-21T06:23:43;24.85;;;11.90;;
53835;SDS011;39737;43.334;21.936;2024-02-21T06:26:29;14.65;;;10.45;;
53835;SDS011;39737;43.334;21.936;2024-02-21T06:29:16;24.95;;;13.20;;
53835;SDS011;39737;43.334;21.936;2024-02-21T06:32:02;26.58;;;14.23;;
53835;SDS011;39737;43.334;21.936;2024-02-21T06:34:49;24.73;;;10.85;;
53835;SDS011;39737;43.334;21.936;2024-02-21T06:37:35;20.20;;;9.43;;
53835;SDS011;39737;43.334;21.936;2024-02-21T06:40:23;18.73;;;11.88;;
53835;SDS011;39737;43.334;21.936;2024-02-21T06:43:10;34.22;;;15.98;;
53835;SDS011;39737;43.334;21.936;2024-02-21T06:45:56;19.83;;;12.88;;
53835;SDS011;39737;43.334;21.936;2024-02-21T06:48:43;26.08;;;11.07;;
53835;SDS011;39737;43.334;21.936;2024-02-21T06:51:32;17.30;;;8.30;;
53835;SDS011;39737;43.334;21.936;2024-02-21T06:54:39;11.85;;;7.88;;
53835;SDS011;39737;43.334;21.936;2024-02-21T06:57:28;16.75;;;6.43;;
53835;SDS011;39737;43.334;21.936;2024-02-21T07:00:15;17.35;;;8.90;;
53835;SDS011;39737;43.334;21.936;2024-02-21T07:03:02;13.63;;;8.63;;
53835;SDS011;39737;43.334;21.936;2024-02-21T07:05:48;17.15;;;7.65;;
53835;SDS011;39737;43.334;21.936;2024-02-21T07:08:35;24.95;;;8.23;;
53835;SDS011;39737;43.334;21.936;2024-02-21T07:11:21;11.07;;;9.30;;
53835;SDS011;39737;43.334;21.936;2024-02-21T07:14:07;15.05;;;9.00;;
53835;SDS011;39737;43.334;21.936;2024-02-21T07:16:54;9.40;;;7.93;;
53835;SDS011;39737;43.334;21.936;2024-02-21T07:19:40;20.75;;;9.07;;
53835;SDS011;39737;43.334;21.936;2024-02-21T07:22:27;12.07;;;9.00;;
53835;SDS011;39737;43.334;21.936;2024-02-21T07:25:14;9.70;;;7.35;;
53835;SDS011;39737;43.334;21.936;2024-02-21T07:28:00;18.90;;;7.15;;
53835;SDS011;39737;43.334;21.936;2024-02-21T07:30:48;17.55;;;6.97;;
53835;SDS011;39737;43.334;21.936;2024-02-21T07:33:36;8.80;;;7.00;;
53835;SDS011;39737;43.334;21.936;2024-02-21T07:36:29;16.23;;;4.93;;
53835;SDS011;39737;43.334;21.936;2024-02-21T07:39:16;16.08;;;5.93;;
53835;SDS011;39737;43.334;21.936;2024-02-21T07:42:03;12.70;;;7.65;;
53835;SDS011;39737;43.334;21.936;2024-02-21T07:44:49;9.77;;;6.75;;
53835;SDS011;39737;43.334;21.936;2024-02-21T07:47:36;17.60;;;7.07;;
53835;SDS011;39737;43.334;21.936;2024-02-21T07:50:22;13.05;;;10.40;;
53835;SDS011;39737;43.334;21.936;2024-02-21T07:53:09;10.25;;;8.27;;
53835;SDS011;39737;43.334;21.936;2024-02-21T07:55:56;20.85;;;9.27;;
53835;SDS011;39737;43.334;21.936;2024-02-21T07:58:42;19.27;;;7.75;;
53835;SDS011;39737;43.334;21.936;2024-02-21T08:01:29;21.55;;;9.07;;
53835;SDS011;39737;43.334;21.936;2024-02-21T08:04:15;15.75;;;9.07;;
53835;SDS011;39737;43.334;21.936;2024-02-21T08:07:02;12.35;;;10.93;;
53835;SDS011;39737;43.334;21.936;2024-02-21T08:09:50;15.48;;;9.98;;
53835;SDS011;39737;43.334;21.936;2024-02-21T08:12:38;25.55;;;15.60;;
53835;SDS011;39737;43.334;21.936;2024-02-21T08:15:25;10.30;;;7.32;;
53835;SDS011;39737;43.334;21.936;2024-02-21T08:18:15;8.90;;;7.68;;
53835;SDS011;39737;43.334;21.936;2024-02-21T08:21:03;13.88;;;12.07;;
53835;SDS011;39737;43.334;21.936;2024-02-21T08:23:52;19.80;;;11.68;;
53835;SDS011;39737;43.334;21.936;2024-02-21T08:26:40;73.30;;;38.72;;
53835;SDS011;39737;43.334;21.936;2024-02-21T08:29:26;19.23;;;11.98;;
53835;SDS011;39737;43.334;21.936;2024-02-21T08:32:13;35.53;;;16.38;;
53835;SDS011;39737;43.334;21.936;2024-02-21T08:34:59;27.42;;;14.27;;
53835;SDS011;39737;43.334;21.936;2024-02-21T08:37:46;33.00;;;19.55;;
53835;SDS011;39737;43.334;21.936;2024-02-21T08:40:34;36.45;;;13.38;;
53835;SDS011;39737;43.334;21.936;2024-02-21T08:43:22;27.60;;;13.85;;
53835;SDS011;39737;43.334;21.936;2024-02-21T08:46:08;19.27;;;13.10;;
53835;SDS011;39737;43.334;21.936;2024-02-21T08:48:54;23.15;;;14.10;;
53835;SDS011;39737;43.334;21.936;2024-02-21T08:51:42;38.60;;;12.55;;
53835;SDS011;39737;43.334;21.936;2024-02-21T08:54:32;28.90;;;14.13;;
53835;SDS011;39737;43.334;21.936;2024-02-21T08:57:20;28.90;;;17.67;;
53835;SDS011;39737;43.334;21.936;2024-02-21T09:00:07;40.65;;;18.42;;
53835;SDS011;39737;43.334;21.936;2024-02-21T09:02:57;23.65;;;13.40;;
53835;SDS011;39737;43.334;21.936;2024-02-21T09:05:44;31.88;;;16.25;;
53835;SDS011;39737;43.334;21.936;2024-02-21T09:08:31;57.80;;;30.08;;
53835;SDS011;39737;43.334;21.936;2024-02-21T09:11:17;23.45;;;13.38;;
53835;SDS011;39737;43.334;21.936;2024-02-21T09:14:04;34.97;;;21.42;;
53835;SDS011;39737;43.334;21.936;2024-02-21T09:16:56;21.80;;;11.88;;
53835;SDS011;39737;43.334;21.936;2024-02-21T09:19:43;54.33;;;19.08;;
53835;SDS011;39737;43.334;21.936;2024-02-21T09:22:30;17.80;;;13.02;;
53835;SDS011;39737;43.334;21.936;2024-02-21T09:25:17;27.30;;;14.35;;
53835;SDS011;39737;43.334;21.936;2024-02-21T09:28:04;28.75;;;14.57;;
53835;SDS011;39737;43.334;21.936;2024-02-21T09:30:53;26.38;;;17.45;;
53835;SDS011;39737;43.334;21.936;2024-02-21T09:33:39;17.88;;;10.00;;
53835;SDS011;39737;43.334;21.936;2024-02-21T09:36:26;21.05;;;13.45;;
53835;SDS011;39737;43.334;21.936;2024-02-21T09:39:13;26.85;;;10.35;;
53835;SDS011;39737;43.334;21.936;2024-02-21T09:42:07;20.77;;;12.50;;
53835;SDS011;39737;43.334;21.936;2024-02-21T09:44:57;34.58;;;14.30;;
53835;SDS011;39737;43.334;21.936;2024-02-21T09:47:48;28.40;;;13.57;;
53835;SDS011;39737;43.334;21.936;2024-02-21T09:50:38;25.40;;;15.60;;
53835;SDS011;39737;43.334;21.936;2024-02-21T09:53:26;27.20;;;14.13;;
53835;SDS011;39737;43.334;21.936;2024-02-21T09:56:16;14.15;;;9.30;;
53835;SDS011;39737;43.334;21.936;2024-02-21T09:59:03;12.93;;;7.60;;
53835;SDS011;39737;43.334;21.936;2024-02-21T10:01:54;21.77;;;9.75;;
53835;SDS011;39737;43.334;21.936;2024-02-21T10:04:41;7.88;;;6.20;;
53835;SDS011;39737;43.334;21.936;2024-02-21T10:07:27;27.75;;;16.65;;
53835;SDS011;39737;43.334;21.936;2024-02-21T10:10:14;30.45;;;10.55;;
53835;SDS011;39737;43.334;21.936;2024-02-21T10:13:02;33.92;;;13.48;;
53835;SDS011;39737;43.334;21.936;2024-02-21T10:15:49;21.25;;;10.25;;
53835;SDS011;39737;43.334;21.936;2024-02-21T10:18:36;20.40;;;10.48;;
53835;SDS011;39737;43.334;21.936;2024-02-21T10:21:23;15.95;;;10.73;;
53835;SDS011;39737;43.334;21.936;2024-02-21T10:24:09;23.77;;;9.73;;
53835;SDS011;39737;43.334;21.936;2024-02-21T10:27:01;14.63;;;9.10;;
53835;SDS011;39737;43.334;21.936;2024-02-21T10:29:49;14.32;;;10.13;;
53835;SDS011;39737;43.334;21.936;2024-02-21T10:32:37;14.57;;;10.07;;
53835;SDS011;39737;43.334;21.936;2024-02-21T10:35:30;25.50;;;8.85;;
53835;SDS011;39737;43.334;21.936;2024-02-21T10:38:17;23.23;;;12.45;;
53835;SDS011;39737;43.334;21.936;2024-02-21T10:41:04;41.05;;;13.07;;
53835;SDS011;39737;43.334;21.936;2024-02-21T10:43:51;31.50;;;16.60;;
53835;SDS011;39737;43.334;21.936;2024-02-21T10:46:40;19.80;;;13.88;;
53835;SDS011;39737;43.334;21.936;2024-02-21T10:49:27;45.47;;;20.58;;
53835;SDS011;39737;43.334;21.936;2024-02-21T10:55:33;17.92;;;9.77;;
53835;SDS011;39737;43.334;21.936;2024-02-21T10:58:25;18.63;;;8.93;;
53835;SDS011;39737;43.334;21.936;2024-02-21T11:01:12;9.98;;;7.28;;
53835;SDS011;39737;43.334;21.936;2024-02-21T11:04:02;11.75;;;6.40;;
53835;SDS011;39737;43.334;21.936;2024-02-21T11:06:49;10.52;;;5.82;;
53835;SDS011;39737;43.334;21.936;2024-02-21T11:09:37;6.70;;;5.82;;
53835;SDS011;39737;43.334;21.936;2024-02-21T11:12:24;8.50;;;5.22;;
53835;SDS011;39737;43.334;21.936;2024-02-21T11:15:12;5.68;;;5.20;;
53835;SDS011;39737;43.334;21.936;2024-02-21T11:17:58;6.28;;;4.13;;
53835;SDS011;39737;43.334;21.936;2024-02-21T11:20:49;13.40;;;5.15;;
53835;SDS011;39737;43.334;21.936;2024-02-21T11:23:36;8.75;;;6.25;;
53835;SDS011;39737;43.334;21.936;2024-02-21T11:26:24;15.80;;;7.82;;
53835;SDS011;39737;43.334;21.936;2024-02-21T11:29:15;14.43;;;10.10;;
53835;SDS011;39737;43.334;21.936;2024-02-21T11:32:10;4.65;;;4.25;;
53835;SDS011;39737;43.334;21.936;2024-02-21T11:35:00;7.10;;;4.90;;
53835;SDS011;39737;43.334;21.936;2024-02-21T11:37:53;14.40;;;5.90;;
53835;SDS011;39737;43.334;21.936;2024-02-21T11:40:40;17.00;;;9.02;;
53835;SDS011;39737;43.334;21.936;2024-02-21T11:43:27;17.02;;;10.05;;
53835;SDS011;39737;43.334;21.936;2024-02-21T11:46:14;11.45;;;6.03;;
53835;SDS011;39737;43.334;21.936;2024-02-21T11:49:01;20.45;;;11.05;;
53835;SDS011;39737;43.334;21.936;2024-02-21T11:51:57;8.30;;;5.75;;
53835;SDS011;39737;43.334;21.936;2024-02-21T11:55:01;21.77;;;12.93;;
53835;SDS011;39737;43.334;21.936;2024-02-21T11:57:51;4.40;;;3.97;;
53835;SDS011;39737;43.334;21.936;2024-02-21T12:00:37;15.48;;;9.60;;
53835;SDS011;39737;43.334;21.936;2024-02-21T12:03:24;5.90;;;5.07;;
53835;SDS011;39737;43.334;21.936;2024-02-21T12:06:10;14.85;;;6.65;;
53835;SDS011;39737;43.334;21.936;2024-02-21T12:08:57;12.00;;;8.30;;
53835;SDS011;39737;43.334;21.936;2024-02-21T12:11:44;22.45;;;12.73;;
53835;SDS011;39737;43.334;21.936;2024-02-21T12:14:32;10.18;;;5.90;;
53835;SDS011;39737;43.334;21.936;2024-02-21T12:17:18;13.18;;;7.22;;
53835;SDS011;39737;43.334;21.936;2024-02-21T12:20:06;2.53;;;2.33;;
53835;SDS011;39737;43.334;21.936;2024-02-21T12:23:01;36.63;;;5.80;;
53835;SDS011;39737;43.334;21.936;2024-02-21T12:25:51;16.08;;;8.45;;
53835;SDS011;39737;43.334;21.936;2024-02-21T12:28:40;15.93;;;7.32;;
53835;SDS011;39737;43.334;21.936;2024-02-21T12:31:27;10.50;;;6.18;;
53835;SDS011;39737;43.334;21.936;2024-02-21T12:34:14;12.75;;;8.98;;
53835;SDS011;39737;43.334;21.936;2024-02-21T12:37:01;19.17;;;9.93;;
53835;SDS011;39737;43.334;21.936;2024-02-21T12:40:08;17.45;;;10.57;;
53835;SDS011;39737;43.334;21.936;2024-02-21T12:42:54;15.63;;;8.77;;
53835;SDS011;39737;43.334;21.936;2024-02-21T12:45:41;11.30;;;6.93;;
53835;SDS011;39737;43.334;21.936;2024-02-21T12:48:27;10.27;;;5.95;;
53835;SDS011;39737;43.334;21.936;2024-02-21T12:51:14;12.23;;;6.47;;
53835;SDS011;39737;43.334;21.936;2024-02-21T12:54:02;8.80;;;6.25;;
53835;SDS011;39737;43.334;21.936;2024-02-21T12:56:51;12.77;;;7.03;;
53835;SDS011;39737;43.334;21.936;2024-02-21T12:59:37;16.50;;;10.07;;
53835;SDS011;39737;43.334;21.936;2024-02-21T13:02:24;10.85;;;6.32;;
53835;SDS011;39737;43.334;21.936;2024-02-21T13:05:10;6.32;;;4.45;;
53835;SDS011;39737;43.334;21.936;2024-02-21T13:07:58;13.07;;;6.38;;
53835;SDS011;39737;43.334;21.936;2024-02-21T13:10:45;14.35;;;7.32;;
53835;SDS011;39737;43.334;21.936;2024-02-21T13:13:31;15.07;;;9.18;;
53835;SDS011;39737;43.334;21.936;2024-02-21T13:16:18;10.57;;;6.75;;
53835;SDS011;39737;43.334;21.936;2024-02-21T13:19:04;11.75;;;6.78;;
53835;SDS011;39737;43.334;21.936;2024-02-21T13:21:51;10.70;;;4.10;;
53835;SDS011;39737;43.334;21.936;2024-02-21T13:24:38;7.88;;;5.57;;
53835;SDS011;39737;43.334;21.936;2024-02-21T13:27:24;17.55;;;7.90;;
53835;SDS011;39737;43.334;21.936;2024-02-21T13:30:10;5.15;;;4.65;;
53835;SDS011;39737;43.334;21.936;2024-02-21T13:32:58;11.93;;;6.68;;
53835;SDS011;39737;43.334;21.936;2024-02-21T13:35:44;3.92;;;3.20;;
53835;SDS011;39737;43.334;21.936;2024-02-21T13:38:31;26.15;;;12.15;;
53835;SDS011;39737;43.334;21.936;2024-02-21T13:41:18;7.50;;;5.97;;
53835;SDS011;39737;43.334;21.936;2024-02-21T13:44:04;7.68;;;5.72;;
53835;SDS011;39737;43.334;21.936;2024-02-21T13:46:51;6.53;;;4.35;;
53835;SDS011;39737;43.334;21.936;2024-02-21T13:49:37;8.65;;;4.53;;
53835;SDS011;39737;43.334;21.936;2024-02-21T13:52:23;6.50;;;4.05;;
53835;SDS011;39737;43.334;21.936;2024-02-21T13:55:12;3.25;;;2.95;;
53835;SDS011;39737;43.334;21.936;2024-02-21T13:57:59;1.85;;;1.75;;
53835;SDS011;39737;43.334;21.936;2024-02-21T14:00:45;1.33;;;1.23;;
53835;SDS011;39737;43.334;21.936;2024-02-21T14:03:34;1.30;;;1.30;;
53835;SDS011;39737;43.334;21.936;2024-02-21T14:06:21;1.80;;;1.70;;
53835;SDS011;39737;43.334;21.936;2024-02-21T14:09:11;3.00;;;2.45;;
53835;SDS011;39737;43.334;21.936;2024-02-21T14:11:59;4.68;;;2.13;;
53835;SDS011;39737;43.334;21.936;2024-02-21T14:14:46;1.10;;;1.00;;
53835;SDS011;39737;43.334;21.936;2024-02-21T14:17:32;1.30;;;1.20;;
53835;SDS011;39737;43.334;21.936;2024-02-21T14:20:37;1.40;;;1.30;;
53835;SDS011;39737;43.334;21.936;2024-02-21T14:23:23;1.35;;;1.25;;
53835;SDS011;39737;43.334;21.936;2024-02-21T14:26:10;1.27;;;1.27;;
53835;SDS011;39737;43.334;21.936;2024-02-21T14:28:57;1.08;;;1.05;;
53835;SDS011;39737;43.334;21.936;2024-02-21T14:31:49;2.88;;;2.30;;
53835;SDS011;39737;43.334;21.936;2024-02-21T14:34:44;1.00;;;1.00;;
53835;SDS011;39737;43.334;21.936;2024-02-21T14:37:47;1.60;;;1.55;;
53835;SDS011;39737;43.334;21.936;2024-02-21T14:40:40;1.15;;;1.15;;
53835;SDS011;39737;43.334;21.936;2024-02-21T14:43:36;4.95;;;2.08;;
53835;SDS011;39737;43.334;21.936;2024-02-21T14:46:24;7.35;;;3.45;;
53835;SDS011;39737;43.334;21.936;2024-02-21T14:49:12;24.05;;;5.93;;
53835;SDS011;39737;43.334;21.936;2024-02-21T14:52:05;27.55;;;16.73;;
53835;SDS011;39737;43.334;21.936;2024-02-21T14:54:53;12.27;;;7.20;;
53835;SDS011;39737;43.334;21.936;2024-02-21T14:57:41;7.07;;;4.35;;
53835;SDS011;39737;43.334;21.936;2024-02-21T15:00:31;26.05;;;7.25;;
53835;SDS011;39737;43.334;21.936;2024-02-21T15:03:20;19.75;;;7.53;;
53835;SDS011;39737;43.334;21.936;2024-02-21T15:06:12;6.68;;;3.90;;
53835;SDS011;39737;43.334;21.936;2024-02-21T15:09:04;15.82;;;4.05;;
53835;SDS011;39737;43.334;21.936;2024-02-21T15:11:56;3.58;;;2.83;;
53835;SDS011;39737;43.334;21.936;2024-02-21T15:14:43;7.47;;;3.75;;
53835;SDS011;39737;43.334;21.936;2024-02-21T15:17:29;2.38;;;2.20;;
53835;SDS011;39737;43.334;21.936;2024-02-21T15:20:15;1.83;;;1.73;;
53835;SDS011;39737;43.334;21.936;2024-02-21T15:23:04;3.22;;;2.67;;
53835;SDS011;39737;43.334;21.936;2024-02-21T15:25:51;1.60;;;1.50;;
53835;SDS011;39737;43.334;21.936;2024-02-21T15:28:38;2.00;;;1.85;;
53835;SDS011;39737;43.334;21.936;2024-02-21T15:31:24;3.58;;;2.80;;
53835;SDS011;39737;43.334;21.936;2024-02-21T15:34:12;3.05;;;2.75;;
53835;SDS011;39737;43.334;21.936;2024-02-21T15:36:59;11.93;;;5.82;;
53835;SDS011;39737;43.334;21.936;2024-02-21T15:40:06;28.08;;;8.85;;
53835;SDS011;39737;43.334;21.936;2024-02-21T15:42:54;26.90;;;16.10;;
53835;SDS011;39737;43.334;21.936;2024-02-21T15:45:41;23.23;;;16.20;;
53835;SDS011;39737;43.334;21.936;2024-02-21T15:48:27;57.22;;;29.98;;
53835;SDS011;39737;43.334;21.936;2024-02-21T15:51:13;36.38;;;19.73;;
53835;SDS011;39737;43.334;21.936;2024-02-21T15:54:02;23.98;;;11.23;;
53835;SDS011;39737;43.334;21.936;2024-02-21T15:56:49;29.05;;;14.65;;
53835;SDS011;39737;43.334;21.936;2024-02-21T15:59:35;19.67;;;12.27;;
53835;SDS011;39737;43.334;21.936;2024-02-21T16:02:21;13.32;;;10.07;;
53835;SDS011;39737;43.334;21.936;2024-02-21T16:05:11;31.70;;;19.23;;
53835;SDS011;39737;43.334;21.936;2024-02-21T16:07:58;76.07;;;30.95;;
53835;SDS011;39737;43.334;21.936;2024-02-21T16:10:44;42.15;;;19.00;;
53835;SDS011;39737;43.334;21.936;2024-02-21T16:13:30;14.07;;;10.00;;
53835;SDS011;39737;43.334;21.936;2024-02-21T16:16:17;35.45;;;14.65;;
53835;SDS011;39737;43.334;21.936;2024-02-21T16:19:03;29.10;;;18.05;;
53835;SDS011;39737;43.334;21.936;2024-02-21T16:21:52;90.32;;;32.70;;
53835;SDS011;39737;43.334;21.936;2024-02-21T16:24:40;32.72;;;17.20;;